createdAt,value
2022-09-01T00:00:11.424Z,98697.43
2022-09-01T00:02:57.278Z,98697.88
2022-09-01T00:05:30.502Z,98695.42
2022-09-01T00:08:18.505Z,98695.02
2022-09-01T00:11:18.856Z,98690.64
2022-09-01T00:13:55.444Z,98693.71
2022-09-01T00:16:27.920Z,98695.38
2022-09-01T00:19:10.758Z,98694.02
2022-09-01T00:21:45.876Z,98695.59
2022-09-01T00:24:30.313Z,98694.86
2022-09-01T00:27:02.639Z,98695.58
2022-09-01T00:29:34.064Z,98700.89
2022-09-01T00:32:17.279Z,98700.08
2022-09-01T00:34:49.857Z,98697.52
2022-09-01T00:37:25.592Z,98698.42
2022-09-01T00:40:27.485Z,98695.13
2022-09-01T00:42:56.145Z,98694.30
2022-09-01T00:45:28.902Z,98694.73
2022-09-01T00:48:06.679Z,98692.79
2022-09-01T00:50:42.517Z,98689.58
2022-09-01T00:53:15.552Z,98688.20
2022-09-01T00:55:49.099Z,98688.80
2022-09-01T00:58:21.644Z,98688.02
2022-09-01T01:01:00.488Z,98684.55
2022-09-01T01:03:36.688Z,98683.86
2022-09-01T01:06:10.886Z,98682.73
2022-09-01T01:08:57.469Z,98682.67
2022-09-01T01:11:32.746Z,98683.30
2022-09-01T01:14:12.186Z,98680.40
2022-09-01T01:16:45.850Z,98676.66
2022-09-01T01:19:46.708Z,98675.37
2022-09-01T01:22:39.251Z,98677.58
2022-09-01T01:25:13.320Z,98670.64
2022-09-01T01:27:45.734Z,98668.43
2022-09-01T01:30:23.901Z,98671.27
2022-09-01T01:32:58.008Z,98664.19
2022-09-01T01:35:34.267Z,98666.46
2022-09-01T01:38:11.768Z,98665.55
2022-09-01T01:40:45.100Z,98664.66
2022-09-01T01:43:20.514Z,98669.74
2022-09-01T01:46:05.732Z,98663.33
2022-09-01T01:48:47.412Z,98661.21
2022-09-01T01:51:22.018Z,98662.61
2022-09-01T01:53:55.859Z,98664.39
2022-09-01T01:56:42.737Z,98665.74
2022-09-01T01:59:15.130Z,98669.91
2022-09-01T02:01:51.964Z,98668.02
2022-09-01T02:04:36.529Z,98665.11
2022-09-01T02:07:19.162Z,98668.20
2022-09-01T02:09:54.110Z,98666.80
2022-09-01T02:12:36.788Z,98666.75
2022-09-01T02:15:27.630Z,98664.27
2022-09-01T02:18:11.040Z,98662.42
2022-09-01T02:25:32.356Z,98656.81
2022-09-01T02:28:28.537Z,98652.82
2022-09-01T02:31:03.016Z,98652.34
2022-09-01T02:33:35.534Z,98651.37
2022-09-01T02:36:06.777Z,98646.58
2022-09-01T02:38:46.786Z,98649.44
2022-09-01T02:41:35.083Z,98648.45
2022-09-01T02:44:15.643Z,98651.34
2022-09-01T02:46:50.751Z,98655.08
2022-09-01T02:49:28.785Z,98648.25
2022-09-01T02:52:03.314Z,98650.73
2022-09-01T02:54:36.912Z,98651.66
2022-09-01T02:57:13.952Z,98646.80
2022-09-01T03:04:21.301Z,98642.98
2022-09-01T03:06:59.159Z,98643.65
2022-09-01T03:09:33.655Z,98639.38
2022-09-01T03:12:09.340Z,98636.81
2022-09-01T03:14:44.811Z,98638.05
2022-09-01T03:17:27.035Z,98632.83
2022-09-01T03:20:01.660Z,98634.56
2022-09-01T03:22:43.044Z,98633.25
2022-09-01T03:25:17.772Z,98633.75
2022-09-01T03:27:50.755Z,98632.96
2022-09-01T03:30:28.150Z,98631.33
2022-09-01T03:33:07.834Z,98629.33
2022-09-01T03:35:45.379Z,98632.43
2022-09-01T03:38:42.533Z,98636.02
2022-09-01T03:45:58.286Z,98634.67
2022-09-01T03:48:40.864Z,98633.14
2022-09-01T03:51:16.661Z,98634.02
2022-09-01T03:53:49.907Z,98630.34
2022-09-01T03:56:25.225Z,98629.85
2022-09-01T03:59:00.880Z,98629.38
2022-09-01T04:01:44.752Z,98626.88
2022-09-01T04:04:18.113Z,98626.05
2022-09-01T04:11:46.050Z,98625.01
2022-09-01T04:14:24.534Z,98628.29
2022-09-01T04:17:18.738Z,98628.42
2022-09-01T04:20:09.996Z,98632.20
2022-09-01T04:22:43.560Z,98633.67
2022-09-01T04:25:26.069Z,98629.66
2022-09-01T04:27:59.398Z,98635.69
2022-09-01T04:30:33.618Z,98635.98
2022-09-01T04:33:04.124Z,98633.91
2022-09-01T04:35:37.792Z,98633.44
2022-09-01T04:38:09.611Z,98634.98
2022-09-01T04:40:42.064Z,98631.00
2022-09-01T04:43:12.505Z,98634.34
2022-09-01T04:45:43.042Z,98634.20
2022-09-01T04:48:13.408Z,98633.14
2022-09-01T04:50:49.574Z,98635.92
2022-09-01T04:53:29.466Z,98638.83
2022-09-01T04:56:05.484Z,98638.79
2022-09-01T04:58:39.133Z,98639.73
2022-09-01T05:01:18.359Z,98633.40
2022-09-01T05:03:56.420Z,98635.39
2022-09-01T05:06:40.945Z,98633.09
2022-09-01T05:09:12.086Z,98634.64
2022-09-01T05:12:12.361Z,98640.36
2022-09-01T05:14:48.953Z,98637.85
2022-09-01T05:17:25.063Z,98637.54
2022-09-01T05:19:56.807Z,98639.32
2022-09-01T05:22:27.392Z,98639.13
2022-09-01T05:25:11.701Z,98638.95
2022-09-01T05:27:49.395Z,98643.17
2022-09-01T05:30:20.875Z,98643.95
2022-09-01T05:32:52.514Z,98644.15
2022-09-01T05:35:27.889Z,98645.04
2022-09-01T05:38:08.921Z,98642.76
2022-09-01T05:40:40.995Z,98642.70
2022-09-01T05:43:13.626Z,98647.88
2022-09-01T05:46:05.571Z,98646.20
2022-09-01T05:48:40.035Z,98642.52
2022-09-01T05:51:40.443Z,98641.67
2022-09-01T05:54:09.819Z,98641.39
2022-09-01T05:56:44.127Z,98641.83
2022-09-01T05:59:24.426Z,98644.77
2022-09-01T06:01:58.868Z,98643.40
2022-09-01T06:04:30.298Z,98647.13
2022-09-01T06:07:09.592Z,98645.77
2022-09-01T06:09:49.856Z,98651.15
2022-09-01T06:12:25.220Z,98650.96
2022-09-01T06:14:57.848Z,98652.73
2022-09-01T06:17:30.945Z,98654.02
2022-09-01T06:20:11.117Z,98654.53
2022-09-01T06:22:46.216Z,98656.08
2022-09-01T06:25:18.918Z,98658.69
2022-09-01T06:27:52.684Z,98660.80
2022-09-01T06:30:27.495Z,98665.64
2022-09-01T06:33:09.491Z,98666.77
2022-09-01T06:35:44.935Z,98671.88
2022-09-01T06:38:19.213Z,98672.95
2022-09-01T06:41:00.932Z,98672.84
2022-09-01T06:43:33.481Z,98672.83
2022-09-01T06:46:05.975Z,98674.88
2022-09-01T06:48:40.265Z,98677.16
2022-09-01T06:51:20.222Z,98676.81
2022-09-01T06:54:00.704Z,98678.62
2022-09-01T06:56:41.546Z,98679.06
2022-09-01T06:59:18.369Z,98673.60
2022-09-01T07:02:01.498Z,98680.20
2022-09-01T07:05:06.054Z,98681.32
2022-09-01T07:17:49.032Z,98688.29
2022-09-01T07:20:24.587Z,98685.98
2022-09-01T07:23:06.515Z,98691.25
2022-09-01T07:26:01.001Z,98690.14
2022-09-01T07:28:36.949Z,98690.23
2022-09-01T07:39:48.492Z,98688.38
2022-09-01T07:51:36.538Z,98688.33
2022-09-01T07:54:08.225Z,98691.38
2022-09-01T07:56:40.571Z,98692.67
2022-09-01T07:59:15.575Z,98699.25
2022-09-01T08:01:57.298Z,98699.61
2022-09-01T08:04:28.083Z,98700.61
2022-09-01T08:06:58.930Z,98703.20
2022-09-01T08:09:37.463Z,98703.16
2022-09-01T08:12:09.636Z,98705.30
2022-09-01T08:14:43.476Z,98710.02
2022-09-01T08:17:18.406Z,98713.10
2022-09-01T08:20:10.371Z,98716.60
2022-09-01T08:23:05.204Z,98713.13
2022-09-01T08:25:39.140Z,98716.64
2022-09-01T08:28:09.753Z,98711.27
2022-09-01T08:30:41.581Z,98703.69
2022-09-01T08:33:20.271Z,98708.13
2022-09-01T08:35:51.884Z,98712.98
2022-09-01T08:38:22.848Z,98709.23
2022-09-01T08:40:57.378Z,98716.55
2022-09-01T08:43:41.541Z,98714.17
2022-09-01T08:46:18.339Z,98711.35
2022-09-01T08:49:24.071Z,98709.90
2022-09-01T08:52:09.326Z,98710.52
2022-09-01T08:54:45.708Z,98709.77
2022-09-01T08:57:21.023Z,98712.36
2022-09-01T09:00:20.388Z,98712.68
2022-09-01T09:03:06.100Z,98710.59
2022-09-01T09:05:48.545Z,98708.02
2022-09-01T09:08:55.149Z,98710.00
2022-09-01T09:11:55.511Z,98711.52
2022-09-01T09:14:37.527Z,98710.30
2022-09-01T09:17:08.397Z,98708.96
2022-09-01T09:19:40.743Z,98707.75
2022-09-01T09:22:13.064Z,98700.91
2022-09-01T09:24:50.920Z,98698.04
2022-09-01T09:27:23.529Z,98697.96
2022-09-01T09:30:01.763Z,98700.38
2022-09-01T09:35:41.986Z,98696.69
2022-09-01T09:38:28.558Z,98701.40
2022-09-01T09:41:17.209Z,98691.88
2022-09-01T09:43:52.361Z,98686.36
2022-09-01T09:46:35.022Z,98682.10
2022-09-01T09:49:21.595Z,98687.75
2022-09-01T09:52:18.609Z,98685.68
2022-09-01T09:55:07.102Z,98677.38
2022-09-01T09:57:42.413Z,98676.77
2022-09-01T10:00:24.489Z,98676.57
2022-09-01T10:03:00.437Z,98676.38
2022-09-01T10:05:37.734Z,98669.16
2022-09-01T10:08:10.747Z,98663.63
2022-09-01T10:10:44.395Z,98663.39
2022-09-01T10:13:17.032Z,98665.96
2022-09-01T10:15:52.804Z,98664.39
2022-09-01T10:18:29.827Z,98664.33
2022-09-01T10:21:02.723Z,98662.20
2022-09-01T10:23:37.702Z,98660.14
2022-09-01T10:26:13.252Z,98666.56
2022-09-01T10:28:51.282Z,98665.11
2022-09-01T10:31:22.948Z,98664.27
2022-09-01T10:33:53.730Z,98662.58
2022-09-01T10:36:24.780Z,98667.64
2022-09-01T10:39:04.353Z,98660.13
2022-09-01T10:42:00.466Z,98665.34
2022-09-01T10:44:34.359Z,98664.10
2022-09-01T10:47:16.227Z,98661.53
2022-09-01T10:50:02.261Z,98660.48
2022-09-01T10:52:55.812Z,98656.91
2022-09-01T10:55:28.369Z,98657.35
2022-09-01T10:59:30.316Z,98651.02
2022-09-01T11:01:34.938Z,98650.61
2022-09-01T11:03:57.056Z,98648.48
2022-09-01T11:07:13.084Z,98643.86
2022-09-01T11:09:44.955Z,98644.64
2022-09-01T11:12:30.491Z,98641.73
2022-09-01T11:15:03.476Z,98640.73
2022-09-01T11:17:39.255Z,98637.90
2022-09-01T11:20:21.565Z,98635.17
2022-09-01T11:23:03.540Z,98634.89
2022-09-01T11:25:45.124Z,98629.11
2022-09-01T11:28:42.025Z,98632.19
2022-09-01T11:31:29.676Z,98634.71
2022-09-01T11:34:10.864Z,98627.44
2022-09-01T11:36:51.924Z,98623.52
2022-09-01T11:39:32.762Z,98620.13
2022-09-01T11:42:07.527Z,98628.69
2022-09-01T11:44:42.480Z,98625.35
2022-09-01T11:47:17.185Z,98620.28
2022-09-01T11:49:53.704Z,98624.41
2022-09-01T11:52:26.308Z,98615.80
2022-09-01T11:54:56.635Z,98612.77
2022-09-01T11:57:29.600Z,98606.05
2022-09-01T12:00:01.226Z,98603.58
2022-09-01T12:02:34.398Z,98601.23
2022-09-01T12:05:26.952Z,98591.11
2022-09-01T12:07:58.451Z,98599.66
2022-09-01T12:10:30.760Z,98596.38
2022-09-01T12:13:06.683Z,98598.48
2022-09-01T12:16:00.426Z,98595.14
2022-09-01T12:18:35.549Z,98587.13
2022-09-01T12:21:09.448Z,98580.10
2022-09-01T12:23:43.125Z,98577.04
2022-09-01T12:26:15.708Z,98588.88
2022-09-01T12:28:46.352Z,98580.83
2022-09-01T12:31:18.393Z,98574.83
2022-09-01T12:33:50.030Z,98575.14
2022-09-01T12:36:26.039Z,98575.28
2022-09-01T12:38:58.229Z,98571.06
2022-09-01T12:41:35.804Z,98567.05
2022-09-01T12:44:30.884Z,98565.10
2022-09-01T12:47:03.394Z,98561.91
2022-09-01T12:49:45.370Z,98559.00
2022-09-01T12:52:25.943Z,98558.66
2022-09-01T12:55:08.747Z,98553.66
2022-09-01T12:57:43.147Z,98557.97
2022-09-01T13:00:24.709Z,98554.84
2022-09-01T13:03:08.041Z,98551.11
2022-09-01T13:05:42.343Z,98548.70
2022-09-01T13:08:15.703Z,98550.05
2022-09-01T13:10:47.872Z,98548.64
2022-09-01T13:13:18.981Z,98546.93
2022-09-01T13:15:53.037Z,98547.17
2022-09-01T13:18:25.318Z,98547.52
2022-09-01T13:20:56.005Z,98536.91
2022-09-01T13:23:26.714Z,98533.20
2022-09-01T13:25:58.961Z,98528.45
2022-09-01T13:28:29.526Z,98526.63
2022-09-01T13:34:23.019Z,98523.29
2022-09-01T13:36:49.322Z,98525.08
2022-09-01T13:39:23.027Z,98525.39
2022-09-01T13:41:53.446Z,98519.59
2022-09-01T13:44:23.847Z,98519.02
2022-09-01T13:50:06.511Z,98522.59
2022-09-01T13:52:36.408Z,98516.25
2022-09-01T13:55:08.021Z,98511.98
2022-09-01T13:57:38.368Z,98511.29
2022-09-01T14:00:12.483Z,98510.79
2022-09-01T14:02:49.923Z,98512.19
2022-09-01T14:05:22.660Z,98500.21
2022-09-01T14:07:54.837Z,98497.98
2022-09-01T14:10:27.895Z,98497.44
2022-09-01T14:12:59.872Z,98494.23
2022-09-01T14:15:32.858Z,98494.96
2022-09-01T14:18:06.083Z,98491.88
2022-09-01T14:20:41.187Z,98492.11
2022-09-01T14:23:13.885Z,98493.60
2022-09-01T14:25:51.011Z,98489.17
2022-09-01T14:28:25.132Z,98484.10
2022-09-01T14:33:28.899Z,98479.41
2022-09-01T14:36:01.244Z,98483.80
2022-09-01T14:38:32.943Z,98483.61
2022-09-01T14:41:06.849Z,98481.02
2022-09-01T14:43:43.123Z,98480.52
2022-09-01T14:46:16.154Z,98475.50
2022-09-01T14:48:49.190Z,98479.98
2022-09-01T14:51:26.182Z,98475.91
2022-09-01T14:53:58.944Z,98474.15
2022-09-01T14:56:30.449Z,98470.98
2022-09-01T14:59:02.983Z,98476.42
2022-09-01T15:01:35.692Z,98472.13
2022-09-01T15:04:08.001Z,98468.33
2022-09-01T15:12:43.995Z,98465.69
2022-09-01T15:15:14.603Z,98467.79
2022-09-01T15:17:46.561Z,98465.41
2022-09-01T15:20:34.805Z,98458.98
2022-09-01T15:23:05.903Z,98459.06
2022-09-01T15:25:37.180Z,98454.78
2022-09-01T15:28:07.651Z,98450.76
2022-09-01T15:30:38.747Z,98450.57
2022-09-01T15:33:15.199Z,98449.05
2022-09-01T15:35:46.113Z,98451.30
2022-09-01T15:38:18.300Z,98452.83
2022-09-01T15:40:57.165Z,98453.05
2022-09-01T15:43:29.493Z,98456.52
2022-09-01T15:46:02.760Z,98452.67
2022-09-01T15:48:33.501Z,98451.72
2022-09-01T15:51:27.801Z,98454.98
2022-09-01T15:54:00.039Z,98452.09
2022-09-01T15:56:31.896Z,98448.45
2022-09-01T15:59:03.487Z,98444.98
2022-09-01T16:01:37.485Z,98445.41
2022-09-01T16:04:09.011Z,98444.21
2022-09-01T16:06:40.485Z,98450.52
2022-09-01T16:09:12.291Z,98446.73
2022-09-01T16:11:42.846Z,98449.33
2022-09-01T16:14:14.122Z,98447.11
2022-09-01T16:16:52.746Z,98447.48
2022-09-01T16:19:33.663Z,98444.51
2022-09-01T16:22:11.835Z,98442.98
2022-09-01T16:24:44.841Z,98439.80
2022-09-01T16:27:17.806Z,98440.38
2022-09-01T16:29:51.675Z,98437.80
2022-09-01T16:32:23.286Z,98435.55
2022-09-01T16:34:54.410Z,98437.46
2022-09-01T16:37:42.873Z,98436.85
2022-09-01T16:40:23.041Z,98433.73
2022-09-01T16:43:00.405Z,98430.45
2022-09-01T16:45:43.245Z,98434.69
2022-09-01T16:48:22.087Z,98429.52
2022-09-01T16:50:58.396Z,98430.48
2022-09-01T16:53:54.143Z,98430.80
2022-09-01T16:56:29.313Z,98423.12
2022-09-01T16:59:08.109Z,98422.16
2022-09-01T17:01:45.222Z,98423.04
2022-09-01T17:04:33.891Z,98417.52
2022-09-01T17:07:09.584Z,98417.20
2022-09-01T17:09:42.071Z,98414.13
2022-09-01T17:12:22.585Z,98414.15
2022-09-01T17:14:58.252Z,98413.94
2022-09-01T17:17:35.533Z,98416.80
2022-09-01T17:20:08.463Z,98415.80
2022-09-01T17:22:39.424Z,98414.12
2022-09-01T17:25:14.846Z,98414.75
2022-09-01T17:27:52.911Z,98408.55
2022-09-01T17:30:23.361Z,98404.70
2022-09-01T17:33:17.154Z,98409.88
2022-09-01T17:35:58.486Z,98412.25
2022-09-01T17:38:35.493Z,98412.75
2022-09-01T17:41:15.951Z,98417.66
2022-09-01T17:43:53.804Z,98419.09
2022-09-01T17:46:31.147Z,98425.70
2022-09-01T17:49:09.141Z,98423.84
2022-09-01T17:51:42.731Z,98426.06
2022-09-01T17:54:20.121Z,98426.94
2022-09-01T17:56:56.927Z,98424.75
2022-09-01T17:59:31.860Z,98427.03
2022-09-01T18:02:18.217Z,98424.66
2022-09-01T18:05:09.576Z,98423.26
2022-09-01T18:07:53.655Z,98421.98
2022-09-01T18:10:27.660Z,98424.54
2022-09-01T18:13:03.587Z,98427.29
2022-09-01T18:15:52.059Z,98427.10
2022-09-01T18:18:33.342Z,98433.70
2022-09-01T18:21:07.133Z,98439.45
2022-09-01T18:23:41.030Z,98444.99
2022-09-01T18:26:20.429Z,98446.55
2022-09-01T18:28:54.017Z,98455.55
2022-09-01T18:31:52.212Z,98455.16
2022-09-01T18:34:28.269Z,98457.70
2022-09-01T18:37:03.553Z,98458.47
2022-09-01T18:39:41.027Z,98460.23
2022-09-01T18:42:15.739Z,98461.11
2022-09-01T18:44:51.797Z,98464.56
2022-09-01T18:47:29.381Z,98461.06
2022-09-01T18:50:05.088Z,98462.30
2022-09-01T18:52:55.064Z,98466.40
2022-09-01T18:55:28.994Z,98470.21
2022-09-01T18:58:03.061Z,98472.63
2022-09-01T19:00:35.895Z,98472.86
2022-09-01T19:03:14.877Z,98472.27
2022-09-01T19:06:06.717Z,98474.72
2022-09-01T19:08:47.088Z,98476.42
2022-09-01T19:11:22.508Z,98480.30
2022-09-01T19:14:03.416Z,98480.55
2022-09-01T19:16:45.879Z,98484.05
2022-09-01T19:19:24.498Z,98483.75
2022-09-01T19:21:56.363Z,98488.02
2022-09-01T19:24:30.621Z,98485.04
2022-09-01T19:27:04.856Z,98485.97
2022-09-01T19:29:39.099Z,98489.05
2022-09-01T19:32:18.068Z,98492.52
2022-09-01T19:34:52.681Z,98493.66
2022-09-01T19:37:23.382Z,98493.85
2022-09-01T19:39:54.604Z,98494.41
2022-09-01T19:42:27.991Z,98494.97
2022-09-01T19:45:06.260Z,98494.64
2022-09-01T19:47:41.214Z,98494.11
2022-09-01T19:50:17.701Z,98493.77
2022-09-01T19:52:55.052Z,98493.67
2022-09-01T19:55:31.480Z,98494.42
2022-09-01T19:58:05.178Z,98497.67
2022-09-01T20:00:50.741Z,98497.40
2022-09-01T20:03:25.647Z,98498.91
2022-09-01T20:05:58.370Z,98497.22
2022-09-01T20:08:28.038Z,98496.50
2022-09-01T20:11:03.221Z,98496.38
2022-09-01T20:13:57.898Z,98499.09
2022-09-01T20:16:31.677Z,98496.02
2022-09-01T20:19:05.062Z,98501.42
2022-09-01T20:21:39.855Z,98498.72
2022-09-01T20:24:17.994Z,98497.48
2022-09-01T20:26:57.350Z,98501.43
2022-09-01T20:29:34.993Z,98504.42
2022-09-01T20:32:06.075Z,98502.33
2022-09-01T20:34:42.211Z,98503.79
2022-09-01T20:37:17.504Z,98500.64
2022-09-01T20:40:01.545Z,98500.17
2022-09-01T20:42:41.094Z,98500.59
2022-09-01T20:45:17.005Z,98504.02
2022-09-01T20:47:52.693Z,98506.39
2022-09-01T20:50:27.145Z,98502.64
2022-09-01T20:53:17.578Z,98506.48
2022-09-01T20:55:53.461Z,98510.14
2022-09-01T20:58:33.019Z,98510.70
2022-09-01T21:01:17.646Z,98512.80
2022-09-01T21:04:03.327Z,98516.84
2022-09-01T21:06:45.611Z,98518.28
2022-09-01T21:09:19.370Z,98516.75
2022-09-01T21:11:55.259Z,98514.33
2022-09-01T21:14:42.901Z,98519.14
2022-09-01T21:17:18.091Z,98516.46
2022-09-01T21:20:02.354Z,98515.98
2022-09-01T21:22:32.853Z,98513.35
2022-09-01T21:25:03.331Z,98512.28
2022-09-01T21:27:37.565Z,98514.08
2022-09-01T21:30:10.640Z,98512.02
2022-09-01T21:32:41.273Z,98518.41
2022-09-01T21:35:14.295Z,98523.08
2022-09-01T21:37:44.638Z,98519.73
2022-09-01T21:40:16.135Z,98521.04
2022-09-01T21:42:49.558Z,98517.58
2022-09-01T21:45:21.360Z,98520.16
2022-09-01T21:47:52.162Z,98521.81
2022-09-01T21:50:24.373Z,98519.31
2022-09-01T21:52:54.793Z,98516.43
2022-09-01T21:55:25.380Z,98516.79
2022-09-01T21:57:56.349Z,98517.36
2022-09-01T22:00:28.968Z,98521.39
2022-09-01T22:03:01.732Z,98523.34
2022-09-01T22:05:31.068Z,98521.36
2022-09-01T22:08:01.613Z,98520.52
2022-09-01T22:10:33.015Z,98514.63
2022-09-01T22:13:04.382Z,98518.00
2022-09-01T22:15:34.821Z,98518.71
2022-09-01T22:18:05.305Z,98515.78
2022-09-01T22:20:35.870Z,98513.41
2022-09-01T22:23:06.284Z,98514.06
2022-09-01T22:25:40.736Z,98513.89
2022-09-01T22:28:11.501Z,98516.55
2022-09-01T22:30:48.522Z,98515.55
2022-09-01T22:33:20.031Z,98512.09
2022-09-01T22:35:52.148Z,98510.27
2022-09-01T22:38:24.276Z,98514.97
2022-09-01T22:40:56.315Z,98514.20
2022-09-01T22:43:27.426Z,98505.62
2022-09-01T22:45:59.770Z,98511.73
2022-09-01T22:48:31.322Z,98513.23
2022-09-01T22:51:07.200Z,98508.40
2022-09-01T22:53:38.662Z,98505.78
2022-09-01T22:56:14.219Z,98512.61
2022-09-01T22:58:44.685Z,98511.65
2022-09-01T23:01:16.918Z,98509.42
2022-09-01T23:03:47.652Z,98508.31
2022-09-01T23:06:27.410Z,98507.02
2022-09-01T23:08:58.920Z,98506.98
2022-09-01T23:11:29.627Z,98503.86
2022-09-01T23:14:00.375Z,98503.17
2022-09-01T23:16:30.823Z,98502.86
2022-09-01T23:19:01.721Z,98501.24
2022-09-01T23:21:34.776Z,98499.23
2022-09-01T23:24:07.563Z,98497.77
2022-09-01T23:26:36.656Z,98500.30
2022-09-01T23:29:07.591Z,98495.17
2022-09-01T23:31:39.726Z,98495.59
2022-09-01T23:34:13.192Z,98492.80
2022-09-01T23:36:43.741Z,98490.67
2022-09-01T23:39:14.301Z,98484.38
2022-09-01T23:41:44.705Z,98487.27
2022-09-01T23:44:15.944Z,98485.40
2022-09-01T23:46:47.528Z,98485.98
2022-09-01T23:49:19.096Z,98486.58
2022-09-01T23:51:50.030Z,98489.80
2022-09-01T23:54:20.463Z,98488.17
2022-09-01T23:56:50.957Z,98485.66
2022-09-01T23:59:27.264Z,98483.46
